Time;durP1;ratioP1;P1;durP2;ratioP2;P2;SDS_P1;SDS_P2;PMS_P1;PMS_P2;Temp;Humidity;BMP_temperature;BMP_pressure;BME280_temperature;BME280_humidity;BME280_pressure;Samples;Min_cycle;Max_cycle;Signal;HPM_P1;HPM_P2
2021/11/26 00:01:57;;;;;;;7.38;3.05;;;5.30;98.00;;;;;;5009279;28;20022;-75
2021/11/26 00:04:23;;;;;;;6.38;2.88;;;5.30;98.00;;;;;;5008461;28;20026;-76
2021/11/26 00:06:49;;;;;;;4.97;2.70;;;5.20;98.00;;;;;;4994021;28;20471;-76
2021/11/26 00:09:14;;;;;;;5.13;2.75;;;5.20;98.10;;;;;;4993480;28;20379;-77
2021/11/26 00:11:40;;;;;;;8.65;3.25;;;5.10;98.10;;;;;;4993307;28;20125;-75
2021/11/26 00:17:03;;;;;;;6.15;2.75;;;5.20;98.10;;;;;;4997290;28;20031;-75
2021/11/26 00:19:30;;;;;;;5.43;2.75;;;5.20;98.00;;;;;;4992886;28;20386;-75
2021/11/26 00:21:57;;;;;;;7.63;2.92;;;5.30;97.90;;;;;;4993171;28;20093;-75
2021/11/26 00:24:24;;;;;;;7.05;3.10;;;5.30;97.80;;;;;;4993077;28;20098;-75
2021/11/26 00:26:50;;;;;;;6.63;3.05;;;5.30;97.80;;;;;;4993742;28;20030;-75
2021/11/26 00:29:16;;;;;;;7.50;2.58;;;5.30;97.80;;;;;;4993466;28;20479;-78
2021/11/26 00:31:43;;;;;;;6.43;2.58;;;5.30;97.80;;;;;;5024834;28;20034;-76
2021/11/26 00:34:10;;;;;;;5.05;2.63;;;5.30;97.80;;;;;;5008384;28;20081;-75
2021/11/26 00:36:36;;;;;;;8.30;3.08;;;5.40;97.90;;;;;;5008119;28;20542;-76
2021/11/26 00:39:04;;;;;;;8.40;2.70;;;5.40;97.80;;;;;;4993380;28;20023;-75
2021/11/26 00:41:30;;;;;;;7.93;3.45;;;5.50;97.80;;;;;;5008005;28;20109;-75
2021/11/26 00:43:56;;;;;;;5.97;3.65;;;5.40;97.70;;;;;;4993222;28;20376;-75
2021/11/26 00:46:22;;;;;;;6.30;2.65;;;5.50;97.70;;;;;;4993033;28;20038;-76
2021/11/26 00:48:48;;;;;;;6.05;2.60;;;5.40;97.70;;;;;;5008277;28;20018;-75
2021/11/26 00:51:13;;;;;;;7.80;2.92;;;5.50;97.60;;;;;;5008151;28;20369;-75
2021/11/26 00:53:39;;;;;;;6.88;2.55;;;5.50;97.50;;;;;;5007636;28;20089;-75
2021/11/26 00:56:05;;;;;;;8.30;2.58;;;5.50;97.50;;;;;;4992817;28;20069;-75
2021/11/26 00:58:31;;;;;;;5.90;2.92;;;5.50;97.50;;;;;;5007709;28;20030;-76
2021/11/26 01:00:57;;;;;;;6.68;2.97;;;5.50;97.50;;;;;;5008007;28;20349;-76
2021/11/26 01:03:23;;;;;;;6.15;2.97;;;5.50;97.50;;;;;;5007639;28;20030;-76
2021/11/26 01:05:50;;;;;;;6.05;2.35;;;5.60;97.50;;;;;;4992976;28;20019;-75
2021/11/26 01:08:19;;;;;;;4.43;1.95;;;5.60;97.50;;;;;;4994757;28;20058;-76
2021/11/26 01:10:45;;;;;;;3.50;2.00;;;5.70;97.50;;;;;;4996830;28;20073;-76
2021/11/26 01:13:11;;;;;;;5.70;2.42;;;5.70;97.50;;;;;;5011491;28;20487;-76
2021/11/26 01:15:39;;;;;;;5.38;2.10;;;5.70;97.50;;;;;;4996582;28;20034;-76
2021/11/26 01:18:06;;;;;;;5.10;2.65;;;5.70;97.50;;;;;;4997250;28;20034;-76
2021/11/26 01:20:34;;;;;;;5.25;2.28;;;5.70;97.60;;;;;;4996202;28;20023;-75
2021/11/26 01:23:00;;;;;;;5.45;2.35;;;5.70;97.60;;;;;;5011981;28;20472;-75
2021/11/26 01:25:27;;;;;;;7.03;2.63;;;5.70;97.60;;;;;;4996360;28;20481;-76
2021/11/26 01:27:54;;;;;;;4.60;1.90;;;5.70;97.50;;;;;;4996764;28;20026;-75
2021/11/26 01:30:34;;;;;;;3.67;2.40;;;5.70;97.60;;;;;;5011823;28;20027;-75
2021/11/26 01:33:05;;;;;;;5.80;2.47;;;5.70;97.50;;;;;;5028335;28;20366;-75
2021/11/26 01:35:32;;;;;;;9.60;2.70;;;5.70;97.60;;;;;;4996240;28;20050;-75
2021/11/26 01:37:57;;;;;;;5.22;2.08;;;5.70;97.80;;;;;;4996294;28;20045;-75
2021/11/26 01:40:23;;;;;;;9.25;2.67;;;5.60;97.60;;;;;;4996208;28;20463;-75
2021/11/26 01:42:51;;;;;;;3.28;2.00;;;5.60;97.60;;;;;;4996645;28;20085;-75
2021/11/26 01:45:18;;;;;;;5.75;2.38;;;5.70;97.70;;;;;;4996648;28;20023;-75
2021/11/26 01:47:44;;;;;;;8.20;2.50;;;5.70;97.60;;;;;;4996654;28;20018;-75
2021/11/26 01:50:11;;;;;;;7.75;2.45;;;5.70;97.60;;;;;;4996672;28;20031;-76
2021/11/26 01:52:37;;;;;;;6.80;2.47;;;5.80;97.60;;;;;;4996891;28;20100;-76
2021/11/26 01:55:05;;;;;;;6.20;3.00;;;5.80;97.60;;;;;;5014464;28;20030;-77
2021/11/26 01:57:31;;;;;;;5.05;2.17;;;5.80;97.50;;;;;;5014358;28;20041;-75
2021/11/26 01:59:57;;;;;;;8.75;2.15;;;5.80;97.50;;;;;;5015567;28;20037;-75
2021/11/26 02:02:23;;;;;;;5.65;2.40;;;5.90;97.50;;;;;;5014165;28;20055;-77
2021/11/26 02:04:48;;;;;;;5.65;2.33;;;5.90;97.50;;;;;;5015585;28;20037;-76
2021/11/26 02:07:15;;;;;;;4.22;2.25;;;5.90;97.50;;;;;;5015906;28;20112;-76
2021/11/26 02:09:40;;;;;;;3.70;2.13;;;5.90;97.60;;;;;;5015287;28;20026;-76
2021/11/26 02:12:07;;;;;;;3.35;1.58;;;5.90;97.50;;;;;;5015355;28;20061;-76
2021/11/26 02:14:33;;;;;;;4.35;1.90;;;5.90;97.50;;;;;;5046668;28;20042;-76
2021/11/26 02:16:59;;;;;;;3.00;1.88;;;5.90;97.50;;;;;;5047147;28;20026;-76
2021/11/26 02:19:26;;;;;;;2.72;1.65;;;5.90;97.50;;;;;;5012873;28;20462;-77
2021/11/26 02:21:53;;;;;;;5.40;1.75;;;5.90;97.50;;;;;;5014094;28;20022;-76
2021/11/26 02:24:19;;;;;;;3.55;2.05;;;5.90;97.50;;;;;;5015327;28;20034;-76
2021/11/26 02:26:47;;;;;;;3.90;1.70;;;5.90;97.50;;;;;;5014568;28;20026;-76
2021/11/26 02:29:14;;;;;;;4.47;1.52;;;5.90;97.50;;;;;;5015188;28;20022;-76
2021/11/26 02:31:40;;;;;;;2.03;1.27;;;6.00;97.50;;;;;;5046531;28;20053;-75
2021/11/26 02:34:06;;;;;;;4.00;1.80;;;6.00;97.50;;;;;;5015213;28;20030;-76
2021/11/26 02:36:33;;;;;;;5.10;1.67;;;6.00;97.40;;;;;;5014736;28;20037;-76
2021/11/26 02:38:59;;;;;;;3.65;1.40;;;6.00;97.40;;;;;;5013700;28;20049;-76
2021/11/26 02:41:25;;;;;;;3.30;1.65;;;6.00;97.30;;;;;;5014929;28;20037;-75
2021/11/26 02:43:51;;;;;;;5.10;1.30;;;6.10;97.40;;;;;;5013633;28;20025;-75
2021/11/26 02:46:20;;;;;;;1.83;1.10;;;6.10;97.30;;;;;;5013698;28;20021;-75
2021/11/26 02:48:46;;;;;;;2.08;1.10;;;6.20;97.30;;;;;;5014528;28;20323;-75
2021/11/26 02:51:12;;;;;;;5.85;1.52;;;6.20;97.20;;;;;;5014866;28;20025;-75
2021/11/26 02:53:38;;;;;;;2.30;1.23;;;6.20;97.20;;;;;;5045771;28;20390;-76
2021/11/26 02:56:04;;;;;;;2.17;1.13;;;6.20;97.20;;;;;;5014604;28;20466;-75
2021/11/26 02:58:30;;;;;;;2.17;1.00;;;6.20;97.20;;;;;;5012961;28;20026;-75
2021/11/26 03:00:58;;;;;;;3.47;1.40;;;6.20;97.50;;;;;;5014721;28;20052;-75
2021/11/26 03:03:23;;;;;;;3.25;1.20;;;6.20;97.30;;;;;;5014663;28;20104;-75
2021/11/26 03:05:54;;;;;;;1.17;1.05;;;6.20;97.40;;;;;;5013847;28;20445;-75
2021/11/26 03:08:20;;;;;;;1.33;0.93;;;6.20;97.40;;;;;;5014277;28;20018;-75
2021/11/26 03:10:45;;;;;;;1.33;1.08;;;6.20;97.40;;;;;;5013768;28;20808;-75
2021/11/26 03:13:11;;;;;;;3.20;1.33;;;6.20;97.40;;;;;;5014343;28;20099;-76
2021/11/26 03:15:39;;;;;;;3.88;1.30;;;6.20;97.50;;;;;;5012178;28;20042;-76
2021/11/26 03:18:06;;;;;;;4.43;2.15;;;6.20;97.50;;;;;;5014506;28;20022;-75
2021/11/26 03:20:32;;;;;;;2.63;1.40;;;6.20;97.50;;;;;;5013993;28;20050;-76
2021/11/26 03:22:58;;;;;;;3.38;1.70;;;6.20;97.50;;;;;;5045859;28;20518;-75
2021/11/26 03:25:25;;;;;;;2.97;1.67;;;6.20;97.50;;;;;;5014191;28;20026;-75
2021/11/26 03:27:51;;;;;;;2.55;1.70;;;6.20;97.50;;;;;;5013763;28;20026;-76
2021/11/26 03:30:19;;;;;;;2.70;1.70;;;6.20;97.50;;;;;;5014142;28;20026;-75
2021/11/26 03:32:45;;;;;;;3.85;1.77;;;6.20;97.50;;;;;;5045528;28;20026;-75
2021/11/26 03:35:11;;;;;;;3.08;1.80;;;6.20;97.50;;;;;;5012765;28;20121;-76
2021/11/26 03:37:37;;;;;;;4.40;1.83;;;6.20;97.60;;;;;;5013503;28;20024;-76
2021/11/26 03:40:06;;;;;;;3.15;1.77;;;6.10;97.60;;;;;;5014129;28;20026;-76
2021/11/26 03:42:31;;;;;;;3.35;1.70;;;6.10;97.60;;;;;;5013396;28;20022;-75
2021/11/26 03:44:57;;;;;;;4.80;1.95;;;6.10;97.70;;;;;;5014124;28;20072;-75
2021/11/26 03:47:24;;;;;;;4.75;2.70;;;6.10;97.70;;;;;;5013743;28;20483;-75
2021/11/26 03:49:49;;;;;;;7.75;2.50;;;6.00;97.70;;;;;;5013246;28;20474;-76
2021/11/26 03:52:15;;;;;;;4.90;2.60;;;6.10;97.80;;;;;;5013707;28;20068;-76
2021/11/26 03:54:42;;;;;;;6.90;2.95;;;6.10;97.80;;;;;;5044599;28;20041;-76
2021/11/26 03:57:08;;;;;;;5.43;2.60;;;6.00;97.80;;;;;;5011844;28;20356;-76
2021/11/26 03:59:34;;;;;;;6.20;2.95;;;6.10;97.80;;;;;;5013034;28;20037;-76
2021/11/26 04:02:00;;;;;;;4.38;2.70;;;6.10;97.80;;;;;;5012180;28;20026;-76
2021/11/26 04:04:25;;;;;;;4.13;2.53;;;6.10;97.70;;;;;;5013459;28;20049;-75
2021/11/26 04:06:51;;;;;;;3.80;2.22;;;6.10;97.70;;;;;;5013101;28;20462;-75
2021/11/26 04:09:17;;;;;;;3.25;2.33;;;6.10;97.70;;;;;;5045349;28;20083;-75
2021/11/26 04:11:42;;;;;;;5.75;2.47;;;6.20;97.60;;;;;;5013434;28;20026;-75
2021/11/26 04:14:08;;;;;;;3.42;2.30;;;6.20;97.60;;;;;;5011724;28;20053;-75
2021/11/26 04:16:36;;;;;;;4.90;2.47;;;6.20;97.60;;;;;;5012945;28;20034;-75
2021/11/26 04:19:05;;;;;;;4.05;2.42;;;6.20;97.50;;;;;;5013532;28;20025;-75
2021/11/26 04:21:31;;;;;;;5.13;2.58;;;6.20;97.60;;;;;;5011955;28;20028;-74
2021/11/26 04:23:57;;;;;;;4.18;2.08;;;6.20;97.60;;;;;;5044633;28;20496;-75
2021/11/26 04:26:23;;;;;;;2.70;1.88;;;6.20;97.60;;;;;;5045269;28;20026;-75
2021/11/26 04:28:49;;;;;;;4.50;2.20;;;6.30;97.60;;;;;;5013298;28;20025;-75
2021/11/26 04:31:14;;;;;;;2.70;1.77;;;6.30;97.60;;;;;;5044794;28;20049;-75
2021/11/26 04:33:40;;;;;;;3.38;1.98;;;6.20;97.50;;;;;;5012166;28;20489;-76
2021/11/26 04:36:06;;;;;;;4.78;1.63;;;6.20;97.50;;;;;;5013191;28;20033;-77
2021/11/26 04:38:32;;;;;;;2.97;1.80;;;6.20;97.60;;;;;;5012980;28;20084;-76
2021/11/26 04:40:58;;;;;;;1.85;1.48;;;6.20;97.50;;;;;;5012993;28;20029;-75
2021/11/26 04:43:24;;;;;;;4.18;1.67;;;6.20;97.60;;;;;;5017748;28;20411;-77
2021/11/26 04:45:51;;;;;;;2.30;1.42;;;6.20;97.50;;;;;;5032199;28;20093;-77
2021/11/26 04:48:21;;;;;;;2.70;1.33;;;6.30;97.60;;;;;;5032470;28;20148;-77
2021/11/26 04:50:48;;;;;;;2.30;1.30;;;6.30;97.60;;;;;;5032026;28;20082;-77
2021/11/26 04:53:14;;;;;;;2.28;1.30;;;6.30;97.50;;;;;;5011958;28;20033;-77
2021/11/26 04:55:40;;;;;;;4.97;1.50;;;6.30;97.60;;;;;;5011526;28;20040;-77
2021/11/26 04:58:06;;;;;;;2.80;1.10;;;6.30;97.50;;;;;;5012466;28;20029;-77
2021/11/26 05:00:32;;;;;;;2.17;1.60;;;6.30;97.50;;;;;;5012721;28;20026;-77
2021/11/26 05:02:58;;;;;;;1.20;0.95;;;6.30;97.50;;;;;;5012302;28;20022;-77
2021/11/26 05:05:24;;;;;;;2.15;1.20;;;6.30;97.40;;;;;;5012628;28;20033;-77
2021/11/26 05:07:50;;;;;;;1.73;1.02;;;6.30;97.70;;;;;;5011895;28;20428;-78
2021/11/26 05:10:19;;;;;;;2.65;1.10;;;6.30;97.40;;;;;;5012692;28;20615;-77
2021/11/26 05:12:56;;;;;;;2.55;1.05;;;6.30;97.50;;;;;;5012226;28;20068;-77
2021/11/26 05:15:26;;;;;;;1.92;1.05;;;6.30;97.50;;;;;;5010953;28;20457;-76
2021/11/26 05:17:58;;;;;;;2.30;0.85;;;6.30;97.60;;;;;;5012219;28;20022;-78
2021/11/26 05:20:24;;;;;;;3.55;1.10;;;6.20;97.60;;;;;;5011156;28;20030;-77
2021/11/26 05:22:51;;;;;;;2.55;1.20;;;6.20;97.60;;;;;;5011783;28;20018;-77
2021/11/26 05:25:18;;;;;;;1.33;0.95;;;6.20;97.70;;;;;;5011199;28;20053;-77
2021/11/26 05:27:44;;;;;;;1.98;0.95;;;6.10;97.70;;;;;;5011726;28;20109;-75
2021/11/26 05:30:11;;;;;;;4.18;1.08;;;6.20;97.80;;;;;;5012380;28;20022;-76
2021/11/26 05:32:38;;;;;;;3.13;0.95;;;6.10;97.80;;;;;;5010693;28;20025;-76
2021/11/26 05:35:12;;;;;;;0.77;0.77;;;6.10;97.80;;;;;;5008924;28;20030;-76
2021/11/26 05:37:39;;;;;;;4.13;1.05;;;6.10;97.80;;;;;;5008620;28;20030;-77
2021/11/26 05:40:06;;;;;;;1.77;0.90;;;6.10;97.80;;;;;;5008882;28;20468;-77
2021/11/26 05:42:33;;;;;;;2.20;0.82;;;6.10;97.80;;;;;;5010252;28;20018;-76
2021/11/26 05:44:59;;;;;;;2.88;1.17;;;6.10;97.80;;;;;;5009632;28;20091;-76
2021/11/26 05:47:24;;;;;;;1.85;0.73;;;6.10;98.00;;;;;;5011006;28;20105;-74
2021/11/26 05:49:50;;;;;;;1.33;1.13;;;6.10;97.80;;;;;;5011289;28;20466;-74
2021/11/26 05:52:15;;;;;;;0.73;0.73;;;6.10;97.80;;;;;;5011816;28;20427;-74
2021/11/26 05:54:41;;;;;;;2.28;0.90;;;6.00;97.80;;;;;;5012326;28;20374;-74
2021/11/26 05:57:07;;;;;;;2.67;0.88;;;6.10;97.80;;;;;;5015810;28;20038;-75
2021/11/26 05:59:33;;;;;;;2.03;0.82;;;6.10;98.10;;;;;;5015655;28;20034;-75
2021/11/26 06:01:59;;;;;;;1.50;0.70;;;6.00;97.80;;;;;;5015195;28;20194;-75
2021/11/26 06:04:26;;;;;;;2.42;0.60;;;6.10;97.80;;;;;;5015644;28;20029;-74
2021/11/26 06:06:51;;;;;;;1.15;0.80;;;6.10;97.80;;;;;;5015110;28;20545;-74
2021/11/26 06:09:17;;;;;;;3.60;1.33;;;6.10;97.70;;;;;;5014423;28;20061;-73
2021/11/26 06:11:43;;;;;;;1.48;0.65;;;6.10;97.70;;;;;;5014902;28;20022;-73
2021/11/26 06:14:09;;;;;;;0.90;0.90;;;6.10;97.70;;;;;;5015095;28;20029;-74
2021/11/26 06:16:34;;;;;;;1.88;0.90;;;6.10;97.70;;;;;;5015015;28;20054;-74
2021/11/26 06:19:00;;;;;;;5.10;1.67;;;6.10;97.70;;;;;;5013639;28;20068;-74
2021/11/26 06:21:26;;;;;;;1.55;0.90;;;6.00;97.70;;;;;;5015348;28;20030;-74
2021/11/26 06:23:51;;;;;;;2.58;1.45;;;6.00;97.70;;;;;;5015280;28;20030;-74
2021/11/26 06:26:17;;;;;;;1.75;1.20;;;6.00;97.70;;;;;;5015454;28;20091;-74
2021/11/26 06:28:43;;;;;;;4.88;1.45;;;6.00;97.80;;;;;;5014881;28;20029;-75
2021/11/26 06:31:08;;;;;;;4.88;1.98;;;6.00;97.70;;;;;;5014882;28;20030;-75
2021/11/26 06:33:34;;;;;;;2.75;1.63;;;5.90;97.70;;;;;;5015229;28;20112;-74
2021/11/26 06:36:00;;;;;;;2.83;1.55;;;6.00;97.80;;;;;;5014726;28;20458;-74
2021/11/26 06:38:26;;;;;;;3.65;1.80;;;6.00;97.80;;;;;;5015124;28;20025;-74
2021/11/26 06:40:52;;;;;;;4.90;1.88;;;6.00;97.80;;;;;;5013386;28;20343;-74
2021/11/26 06:43:17;;;;;;;5.22;1.80;;;6.00;97.70;;;;;;5015074;28;20026;-74
2021/11/26 06:45:43;;;;;;;4.03;1.67;;;6.00;97.70;;;;;;5013411;28;20076;-75
2021/11/26 06:48:10;;;;;;;2.38;1.80;;;6.00;97.70;;;;;;5014980;28;20099;-74
2021/11/26 06:50:37;;;;;;;5.47;1.65;;;6.00;97.70;;;;;;5013602;28;20028;-74
2021/11/26 06:53:04;;;;;;;3.42;1.80;;;6.00;97.70;;;;;;5014469;28;20030;-75
2021/11/26 06:55:30;;;;;;;3.92;1.73;;;6.00;97.70;;;;;;5013908;28;20121;-75
2021/11/26 06:57:55;;;;;;;3.55;1.80;;;6.00;97.70;;;;;;5014224;28;20125;-73
2021/11/26 07:00:22;;;;;;;7.15;1.92;;;6.00;97.70;;;;;;5014907;28;20498;-74
2021/11/26 07:02:48;;;;;;;3.00;1.60;;;6.00;97.70;;;;;;5014070;28;20108;-74
2021/11/26 07:05:14;;;;;;;4.95;1.88;;;6.00;97.70;;;;;;5012944;28;20029;-74
2021/11/26 07:07:40;;;;;;;4.82;1.83;;;5.90;97.70;;;;;;5013128;28;20517;-74
2021/11/26 07:10:08;;;;;;;5.57;2.08;;;5.90;97.70;;;;;;5014081;28;20122;-74
2021/11/26 07:12:34;;;;;;;6.97;2.10;;;5.90;97.80;;;;;;5013144;28;20048;-74
2021/11/26 07:15:00;;;;;;;3.88;1.90;;;5.90;97.80;;;;;;5013400;28;20053;-74
2021/11/26 07:17:26;;;;;;;6.53;1.95;;;5.90;97.80;;;;;;5014570;28;20042;-75
2021/11/26 07:19:52;;;;;;;4.97;2.40;;;5.90;97.80;;;;;;5013576;28;20034;-74
2021/11/26 07:22:18;;;;;;;4.68;2.00;;;5.90;97.80;;;;;;5012903;28;20022;-74
2021/11/26 07:24:45;;;;;;;4.18;1.83;;;5.90;97.80;;;;;;5014294;28;20044;-74
2021/11/26 07:27:11;;;;;;;5.53;2.30;;;5.90;97.80;;;;;;5014454;28;20053;-74
2021/11/26 07:29:36;;;;;;;3.83;1.83;;;6.00;97.80;;;;;;5013824;28;20057;-74
2021/11/26 07:32:03;;;;;;;6.65;2.75;;;6.00;97.80;;;;;;5013426;28;20172;-74
2021/11/26 07:34:28;;;;;;;8.88;2.75;;;5.90;97.70;;;;;;5013931;28;20022;-74
2021/11/26 07:36:55;;;;;;;5.22;2.45;;;5.90;97.70;;;;;;5013512;28;20053;-74
2021/11/26 07:39:24;;;;;;;7.68;2.90;;;5.80;98.00;;;;;;5012900;28;20029;-74
2021/11/26 07:41:51;;;;;;;6.97;2.83;;;5.90;97.80;;;;;;5013475;28;20018;-74
2021/11/26 07:44:16;;;;;;;7.00;2.45;;;5.80;97.70;;;;;;5012640;28;20445;-74
2021/11/26 07:46:42;;;;;;;7.90;2.83;;;5.90;97.80;;;;;;5014026;28;20470;-75
2021/11/26 07:49:08;;;;;;;5.45;3.13;;;5.90;97.80;;;;;;5013237;28;20026;-74
2021/11/26 07:51:34;;;;;;;8.20;3.42;;;5.80;97.70;;;;;;5012422;28;20426;-75
2021/11/26 07:54:00;;;;;;;7.63;3.55;;;5.80;97.70;;;;;;5011791;28;20025;-74
2021/11/26 07:56:26;;;;;;;5.53;3.38;;;5.80;97.70;;;;;;5013554;28;20033;-74
2021/11/26 07:58:51;;;;;;;6.95;3.80;;;5.70;97.70;;;;;;5013095;28;20018;-73
2021/11/26 08:01:17;;;;;;;9.32;4.03;;;5.70;97.80;;;;;;5013504;28;20113;-73
2021/11/26 08:03:43;;;;;;;9.45;3.78;;;5.70;97.90;;;;;;5013496;28;20486;-74
2021/11/26 08:06:09;;;;;;;7.18;3.25;;;5.70;97.90;;;;;;5013059;28;20029;-73
2021/11/26 08:08:35;;;;;;;9.52;4.05;;;5.60;97.90;;;;;;5013407;28;20022;-74
2021/11/26 08:11:01;;;;;;;9.13;4.47;;;5.60;97.90;;;;;;5012623;28;20025;-74
2021/11/26 08:13:26;;;;;;;7.40;3.20;;;5.70;97.90;;;;;;5013243;28;20083;-74
2021/11/26 08:15:52;;;;;;;6.03;3.30;;;5.70;97.90;;;;;;5012595;28;20089;-74
2021/11/26 08:18:17;;;;;;;9.25;3.35;;;5.70;97.80;;;;;;5012921;28;20359;-74
2021/11/26 08:20:43;;;;;;;6.68;3.20;;;5.80;97.70;;;;;;5011854;28;20047;-74
2021/11/26 08:23:09;;;;;;;9.52;3.60;;;5.80;97.60;;;;;;5011366;28;20017;-74
2021/11/26 08:25:36;;;;;;;9.25;4.35;;;5.80;97.60;;;;;;5013091;28;20014;-74
2021/11/26 08:28:03;;;;;;;10.85;3.72;;;5.90;97.50;;;;;;5011072;28;20100;-74
2021/11/26 08:30:28;;;;;;;6.40;3.72;;;6.00;97.30;;;;;;5013014;28;20026;-74
2021/11/26 08:32:54;;;;;;;6.78;3.00;;;6.00;97.20;;;;;;5012451;28;20033;-74
2021/11/26 08:35:21;;;;;;;11.05;3.55;;;6.00;97.10;;;;;;5012823;28;20034;-74
2021/11/26 08:37:48;;;;;;;10.50;3.28;;;6.10;97.00;;;;;;5012960;28;20030;-74
2021/11/26 08:40:15;;;;;;;8.40;3.13;;;6.10;97.00;;;;;;5012407;28;20062;-74
2021/11/26 08:42:41;;;;;;;7.90;3.42;;;6.10;97.00;;;;;;5011484;28;20367;-74
2021/11/26 08:45:07;;;;;;;11.52;3.95;;;6.20;96.90;;;;;;5010781;28;20040;-74
2021/11/26 08:47:34;;;;;;;9.35;3.50;;;6.20;96.80;;;;;;5012954;28;20036;-74
2021/11/26 08:50:00;;;;;;;9.30;3.13;;;6.10;96.60;;;;;;5011012;28;20022;-75
2021/11/26 08:52:27;;;;;;;5.78;2.65;;;6.10;96.60;;;;;;5011439;28;20025;-75
2021/11/26 08:54:53;;;;;;;9.57;3.75;;;6.10;96.60;;;;;;5012249;28;20034;-74
2021/11/26 08:57:23;;;;;;;10.52;3.85;;;6.10;96.60;;;;;;5012692;28;20029;-74
2021/11/26 08:59:49;;;;;;;11.88;3.50;;;6.20;96.50;;;;;;5011329;28;20137;-73
2021/11/26 09:02:15;;;;;;;9.77;3.55;;;6.20;96.50;;;;;;5012057;28;20053;-74
2021/11/26 09:04:40;;;;;;;7.35;3.40;;;6.20;96.40;;;;;;5011267;28;20137;-74
2021/11/26 09:07:06;;;;;;;10.55;3.58;;;6.20;96.40;;;;;;5012189;28;20117;-75
2021/11/26 09:09:32;;;;;;;10.02;3.53;;;6.20;96.40;;;;;;5011218;28;20569;-74
2021/11/26 09:11:57;;;;;;;9.20;4.18;;;6.30;96.40;;;;;;5012093;28;20542;-74
2021/11/26 09:14:23;;;;;;;10.38;3.60;;;6.30;96.20;;;;;;5012575;28;20034;-73
2021/11/26 09:16:49;;;;;;;9.88;3.85;;;6.30;96.20;;;;;;5010515;28;20061;-74
2021/11/26 09:19:15;;;;;;;10.95;4.57;;;6.20;96.10;;;;;;5010763;28;20323;-75
2021/11/26 09:21:42;;;;;;;13.57;3.70;;;6.30;96.10;;;;;;5012795;28;20104;-74
2021/11/26 09:24:08;;;;;;;12.60;3.70;;;6.20;96.20;;;;;;5010655;28;20026;-74
2021/11/26 09:26:34;;;;;;;9.73;4.10;;;6.30;96.10;;;;;;5012374;28;20109;-73
2021/11/26 09:29:00;;;;;;;8.27;3.80;;;6.30;96.00;;;;;;5013155;28;20021;-74
2021/11/26 09:31:26;;;;;;;10.05;3.83;;;6.30;95.90;;;;;;5014611;28;20084;-74
2021/11/26 09:33:53;;;;;;;12.65;4.97;;;6.30;95.90;;;;;;5015716;28;20034;-74
2021/11/26 09:36:21;;;;;;;13.93;4.80;;;6.30;95.80;;;;;;5015226;28;20355;-74
2021/11/26 09:38:46;;;;;;;8.05;3.28;;;6.20;95.80;;;;;;5016184;28;20109;-74
2021/11/26 09:41:14;;;;;;;10.32;3.70;;;6.20;95.90;;;;;;5015894;28;20105;-74
2021/11/26 09:43:40;;;;;;;9.90;3.67;;;6.20;95.80;;;;;;5015902;28;20505;-74
2021/11/26 09:46:06;;;;;;;10.95;4.65;;;6.10;95.70;;;;;;5015551;28;20030;-74
2021/11/26 09:48:35;;;;;;;12.38;4.07;;;6.00;95.70;;;;;;5015901;28;20037;-74
2021/11/26 09:51:04;;;;;;;10.45;3.53;;;6.00;95.70;;;;;;5015637;28;20026;-74
2021/11/26 09:53:30;;;;;;;9.23;3.15;;;5.90;95.80;;;;;;5015579;28;20497;-74
2021/11/26 09:55:59;;;;;;;11.35;4.38;;;6.00;95.80;;;;;;5013806;28;20026;-74
2021/11/26 09:58:29;;;;;;;7.35;3.13;;;6.10;95.70;;;;;;5015378;28;20025;-74
2021/11/26 10:00:56;;;;;;;8.02;3.13;;;6.10;95.60;;;;;;5015741;28;20076;-74
2021/11/26 10:03:23;;;;;;;6.85;3.00;;;6.10;95.60;;;;;;5015567;28;20113;-74
2021/11/26 10:05:49;;;;;;;6.57;3.28;;;6.20;95.30;;;;;;5015290;28;20033;-74
2021/11/26 10:08:24;;;;;;;7.90;3.38;;;6.20;95.20;;;;;;5015028;28;20034;-74
2021/11/26 10:11:01;;;;;;;7.20;3.20;;;6.20;95.10;;;;;;5015245;28;20390;-74
2021/11/26 10:13:30;;;;;;;7.60;3.00;;;6.20;95.00;;;;;;5015055;28;20494;-74
2021/11/26 10:16:06;;;;;;;6.88;2.85;;;6.20;94.80;;;;;;5014833;28;20477;-74
2021/11/26 10:18:33;;;;;;;7.35;2.55;;;6.20;94.70;;;;;;5015544;28;20030;-74
2021/11/26 10:21:07;;;;;;;7.38;3.10;;;6.30;94.80;;;;;;5013533;28;20049;-73
2021/11/26 10:23:36;;;;;;;7.93;3.35;;;6.30;94.70;;;;;;5015539;28;20033;-74
2021/11/26 10:26:26;;;;;;;7.05;3.03;;;6.40;94.60;;;;;;5015092;28;20076;-74
2021/11/26 10:29:04;;;;;;;6.55;3.03;;;6.40;94.60;;;;;;5013998;28;20026;-74
2021/11/26 10:31:33;;;;;;;10.50;3.17;;;6.50;94.60;;;;;;5015082;28;20018;-74
2021/11/26 10:34:01;;;;;;;5.75;2.50;;;6.50;94.40;;;;;;5013437;28;20113;-74
2021/11/26 10:36:28;;;;;;;7.05;2.83;;;6.60;94.40;;;;;;5015148;28;20112;-75
2021/11/26 10:38:55;;;;;;;13.15;3.05;;;6.80;94.20;;;;;;5015226;28;20025;-75
2021/11/26 10:41:29;;;;;;;6.32;2.90;;;6.90;94.10;;;;;;5013841;28;20076;-75
2021/11/26 10:44:12;;;;;;;12.00;2.88;;;6.90;93.80;;;;;;5015167;28;20034;-75
2021/11/26 10:46:44;;;;;;;6.50;2.30;;;7.00;93.50;;;;;;5014939;28;20025;-74
2021/11/26 10:49:43;;;;;;;6.05;2.28;;;7.00;93.30;;;;;;5014459;28;20022;-73
2021/11/26 11:00:18;;;;;;;9.60;2.83;;;6.90;92.90;;;;;;5014214;28;20034;-74
2021/11/26 11:02:46;;;;;;;11.05;3.03;;;6.90;92.90;;;;;;5013492;28;20378;-74
2021/11/26 11:05:36;;;;;;;5.63;2.75;;;6.90;92.70;;;;;;5012781;28;20045;-75
2021/11/26 11:08:05;;;;;;;9.05;2.22;;;6.80;92.80;;;;;;5014232;28;20156;-75
2021/11/26 11:10:31;;;;;;;8.75;2.70;;;6.90;92.90;;;;;;5014820;28;20096;-75
2021/11/26 11:13:07;;;;;;;9.52;3.00;;;7.00;92.90;;;;;;5014492;28;20160;-75
2021/11/26 11:15:33;;;;;;;7.60;2.65;;;7.10;92.80;;;;;;5014275;28;20060;-75
2021/11/26 11:17:59;;;;;;;7.03;2.95;;;7.10;92.70;;;;;;5012838;28;20029;-75
2021/11/26 11:20:25;;;;;;;8.63;3.03;;;7.00;92.60;;;;;;5013830;28;20022;-75
2021/11/26 11:22:51;;;;;;;7.88;2.85;;;7.00;92.60;;;;;;5014043;28;20081;-75
2021/11/26 11:25:24;;;;;;;8.90;2.72;;;7.00;92.40;;;;;;5012417;28;20470;-75
2021/11/26 11:27:52;;;;;;;12.50;2.83;;;6.90;92.50;;;;;;5014229;28;20022;-75
2021/11/26 11:30:17;;;;;;;5.78;2.47;;;7.00;92.40;;;;;;5013241;28;20022;-75
2021/11/26 11:32:43;;;;;;;6.53;2.83;;;7.00;92.50;;;;;;5013735;28;20033;-74
2021/11/26 11:35:11;;;;;;;6.13;2.80;;;7.00;92.50;;;;;;5013470;28;20036;-74
2021/11/26 11:37:37;;;;;;;6.28;2.22;;;7.00;92.40;;;;;;5012409;28;20092;-73
2021/11/26 11:40:09;;;;;;;9.95;2.30;;;7.00;92.40;;;;;;5012847;28;20046;-73
2021/11/26 11:42:42;;;;;;;4.75;2.30;;;7.00;92.10;;;;;;5013074;28;20017;-73
2021/11/26 11:45:10;;;;;;;4.60;2.22;;;7.10;92.10;;;;;;5007538;28;20054;-74
2021/11/26 11:47:46;;;;;;;6.03;2.80;;;7.00;92.10;;;;;;4994252;28;20022;-73
2021/11/26 11:50:22;;;;;;;5.43;2.53;;;7.10;92.20;;;;;;4993456;28;20069;-73
2021/11/26 11:52:52;;;;;;;5.05;2.67;;;7.10;92.20;;;;;;4993198;28;20030;-73
2021/11/26 11:55:39;;;;;;;5.93;2.55;;;7.10;92.00;;;;;;4993175;28;20473;-73
2021/11/26 11:58:19;;;;;;;7.72;2.95;;;7.10;92.10;;;;;;4993564;28;20045;-74
2021/11/26 12:00:48;;;;;;;5.93;2.58;;;7.20;92.00;;;;;;5009130;28;20101;-74
2021/11/26 12:03:19;;;;;;;7.88;2.90;;;7.30;92.00;;;;;;4993400;28;20022;-74
2021/11/26 12:06:04;;;;;;;;;;;7.30;91.90;;;;;;4994289;28;20072;-74
2021/11/26 12:08:42;;;;;;;4.10;2.08;;;7.40;91.80;;;;;;4993834;28;20001;-74
2021/11/26 12:11:08;;;;;;;5.10;2.63;;;7.40;91.40;;;;;;4993525;28;20038;-75
2021/11/26 12:13:36;;;;;;;6.10;2.08;;;7.30;91.40;;;;;;4993563;28;20416;-73
2021/11/26 12:16:05;;;;;;;6.05;2.60;;;7.30;91.60;;;;;;4993254;28;20046;-74
2021/11/26 12:18:46;;;;;;;12.60;2.88;;;7.30;91.60;;;;;;4993574;28;20049;-74
2021/11/26 12:21:14;;;;;;;7.72;2.80;;;7.30;91.70;;;;;;4993244;28;20471;-74
2021/11/26 12:26:24;;;;;;;7.00;2.50;;;7.00;92.20;;;;;;4993047;28;20089;-74
2021/11/26 12:28:56;;;;;;;5.18;2.67;;;6.90;92.30;;;;;;5025352;28;20037;-74
2021/11/26 12:31:30;;;;;;;5.30;2.65;;;6.80;92.40;;;;;;4993085;28;20049;-74
2021/11/26 12:34:08;;;;;;;7.43;2.33;;;6.70;92.60;;;;;;4993313;28;20030;-74
2021/11/26 12:36:50;;;;;;;7.00;3.13;;;6.70;92.70;;;;;;5008599;28;20027;-74
2021/11/26 12:39:22;;;;;;;8.05;3.35;;;6.60;92.90;;;;;;4992772;28;20023;-75
2021/11/26 12:41:49;;;;;;;7.25;3.00;;;6.50;93.20;;;;;;5024462;28;20057;-74
2021/11/26 12:44:19;;;;;;;3.38;1.92;;;6.50;93.30;;;;;;4992748;28;20081;-73
2021/11/26 12:46:46;;;;;;;8.38;3.35;;;6.40;93.50;;;;;;4993674;28;20022;-74
2021/11/26 12:52:16;;;;;;;8.82;3.28;;;6.30;93.80;;;;;;4993271;28;20124;-74
2021/11/26 12:54:44;;;;;;;5.50;2.90;;;6.30;93.90;;;;;;4983406;28;20406;-74
2021/11/26 12:57:18;;;;;;;3.95;2.85;;;6.20;94.00;;;;;;4992655;28;20109;-74
2021/11/26 12:59:48;;;;;;;5.22;3.20;;;6.20;94.20;;;;;;4995419;28;20076;-74
2021/11/26 13:02:21;;;;;;;10.32;3.42;;;6.20;94.40;;;;;;5012060;28;20018;-74
2021/11/26 13:04:50;;;;;;;5.82;3.30;;;6.10;94.50;;;;;;5012337;28;20064;-74
2021/11/26 13:07:22;;;;;;;5.05;2.78;;;6.10;94.70;;;;;;5012155;28;20022;-74
2021/11/26 13:09:49;;;;;;;;;;;6.10;94.80;;;;;;5011807;28;20478;-75
2021/11/26 13:12:16;;;;;;;5.72;2.42;;;6.10;94.80;;;;;;5011922;28;19906;-75
2021/11/26 13:14:50;;;;;;;7.45;3.40;;;6.00;94.90;;;;;;5012460;28;20037;-75
2021/11/26 13:17:17;;;;;;;7.97;2.50;;;6.00;95.00;;;;;;5010221;28;20470;-75